Weather at Sarasota Dept Of Fire-Rescue East Side Heliport

Public forecast

Using degrees Fahrenheit for public forecast. Weather courtesy of forecast.io.

Closest aviation weather report (METAR) to Sarasota Dept Of Fire-Rescue East Side Heliport

Closest report is Sarasota Bradenton International Airport, 4.6 nm (8.5 km) NW. Retrieved 2021/01/25 12:38 UTC (0 seconds ago):

KSRQ 251238Z 12007KT 3/4SM BR VV002 18/17 A3003 RMK AO2 T01780167

Closest aviation forecast (TAF) to Sarasota Dept Of Fire-Rescue East Side Heliport

Closest forecast is Sarasota Bradenton International Airport, 4.6 nm (8.5 km) NW. Retrieved 2021/01/25 12:42 UTC (0 seconds ago):

TAF COR KSRQ 251139Z 2512/2612 12003KT 6SM BR SCT004 BKN015 TEMPO 2512/2513 3SM BR BKN004 FM251500 15008KT P6SM FEW007 SCT015 BKN250 FM251800 19014KT P6SM SCT030 BKN250 FM260200 17007KT P6SM BKN250 FM260800 16007KT 3SM BR VCFG SCT003 BKN007